createdAt,value
2023-05-22T00:01:09.600Z,72.64
2023-05-22T00:03:37.148Z,72.76
2023-05-22T00:06:03.843Z,72.71
2023-05-22T00:08:30.994Z,72.63
2023-05-22T00:10:57.675Z,72.68
2023-05-22T00:13:24.242Z,72.64
2023-05-22T00:15:50.739Z,72.73
2023-05-22T00:18:17.791Z,72.84
2023-05-22T00:20:46.485Z,72.82
2023-05-22T00:23:15.772Z,72.86
2023-05-22T00:25:42.617Z,73.01
2023-05-22T00:28:09.163Z,73.00
2023-05-22T00:30:36.921Z,73.13
2023-05-22T00:33:03.959Z,73.16
2023-05-22T00:35:30.803Z,73.16
2023-05-22T00:37:57.687Z,73.51
2023-05-22T00:40:24.303Z,73.45
2023-05-22T00:42:51.104Z,73.52
2023-05-22T00:45:17.683Z,73.47
2023-05-22T00:47:44.354Z,73.44
2023-05-22T00:50:12.003Z,73.45
2023-05-22T00:52:43.221Z,73.69
2023-05-22T00:55:12.554Z,73.49
2023-05-22T00:57:42.774Z,73.60
2023-05-22T01:00:13.403Z,73.69
2023-05-22T01:02:43.300Z,73.70
2023-05-22T01:05:13.106Z,74.04
2023-05-22T01:07:40.021Z,74.10
2023-05-22T01:10:07.357Z,74.18
2023-05-22T01:12:51.915Z,74.22
2023-05-22T01:15:52.230Z,74.31
2023-05-22T01:18:34.107Z,74.28
2023-05-22T01:21:06.482Z,74.28
2023-05-22T01:23:36.616Z,74.18
2023-05-22T01:26:24.789Z,74.26
2023-05-22T01:29:02.073Z,74.22
2023-05-22T01:31:31.555Z,74.18
2023-05-22T01:34:02.582Z,74.08
2023-05-22T01:36:34.979Z,74.11
2023-05-22T01:39:04.676Z,74.33
2023-05-22T01:41:32.392Z,74.13
2023-05-22T01:44:00.789Z,74.21
2023-05-22T01:46:29.067Z,74.14
2023-05-22T01:48:56.196Z,74.14
2023-05-22T01:51:59.121Z,74.28
2023-05-22T01:54:46.323Z,74.23
2023-05-22T01:57:21.877Z,74.25
2023-05-22T02:00:09.885Z,74.17
2023-05-22T02:02:39.333Z,74.19
2023-05-22T02:05:11.510Z,74.17
2023-05-22T02:07:40.489Z,74.33
2023-05-22T02:10:10.433Z,74.37
2023-05-22T02:12:38.116Z,74.53
2023-05-22T02:15:06.917Z,74.61
2023-05-22T02:17:40.494Z,74.85
2023-05-22T02:20:15.372Z,74.87
2023-05-22T02:22:44.376Z,75.08
2023-05-22T02:25:15.070Z,75.10
2023-05-22T02:27:46.718Z,75.33
2023-05-22T02:30:14.726Z,75.87
2023-05-22T02:32:42.463Z,75.65
2023-05-22T02:35:09.957Z,75.70
2023-05-22T02:37:37.352Z,75.71
2023-05-22T02:40:07.298Z,75.84
2023-05-22T02:42:34.787Z,75.87
2023-05-22T02:45:01.863Z,75.99
2023-05-22T02:47:28.768Z,76.28
2023-05-22T02:49:57.815Z,76.54
2023-05-22T02:52:24.982Z,76.40
2023-05-22T02:54:51.776Z,76.50
2023-05-22T02:57:18.340Z,76.60
2023-05-22T02:59:44.988Z,76.80
2023-05-22T03:02:12.374Z,76.89
2023-05-22T03:04:38.994Z,76.97
2023-05-22T03:07:07.315Z,77.02
2023-05-22T03:09:34.412Z,77.03
2023-05-22T03:12:02.996Z,77.16
2023-05-22T03:14:29.712Z,77.20
2023-05-22T03:16:56.702Z,77.32
2023-05-22T03:19:23.977Z,77.26
2023-05-22T03:21:51.480Z,77.19
2023-05-22T03:24:18.092Z,77.27
2023-05-22T03:26:44.867Z,77.29
2023-05-22T03:29:11.875Z,77.33
2023-05-22T03:31:38.385Z,77.54
2023-05-22T03:34:05.958Z,77.40
2023-05-22T03:36:36.070Z,77.43
2023-05-22T03:39:04.141Z,77.36
2023-05-22T03:41:30.874Z,77.20
2023-05-22T03:43:58.536Z,77.12
2023-05-22T03:46:25.561Z,76.88
2023-05-22T03:48:52.683Z,76.65
2023-05-22T03:51:20.401Z,76.53
2023-05-22T03:53:47.585Z,76.36
2023-05-22T03:56:14.345Z,76.21
2023-05-22T03:58:41.046Z,76.00
2023-05-22T04:01:10.034Z,75.80
2023-05-22T04:03:37.675Z,75.69
2023-05-22T04:06:05.634Z,75.58
2023-05-22T04:08:32.612Z,75.27
2023-05-22T04:10:59.221Z,75.23
2023-05-22T04:13:27.785Z,74.97
2023-05-22T04:15:54.837Z,74.82
2023-05-22T04:18:21.411Z,74.83
2023-05-22T04:20:48.370Z,74.77
2023-05-22T04:23:15.097Z,74.49
2023-05-22T04:25:41.651Z,74.32
2023-05-22T04:28:09.193Z,74.17
2023-05-22T04:30:37.491Z,73.91
2023-05-22T04:33:05.598Z,73.73
2023-05-22T04:35:32.783Z,73.68
2023-05-22T04:38:03.503Z,73.37
2023-05-22T04:40:33.717Z,73.33
2023-05-22T04:43:01.545Z,73.02
2023-05-22T04:45:29.075Z,72.78
2023-05-22T04:47:56.345Z,72.62
2023-05-22T04:50:24.092Z,72.60
2023-05-22T04:52:51.264Z,72.48
2023-05-22T04:55:19.443Z,72.22
2023-05-22T04:57:47.149Z,71.94
2023-05-22T05:00:15.794Z,71.82
2023-05-22T05:02:42.985Z,71.85
2023-05-22T05:05:10.579Z,71.61
2023-05-22T05:07:38.751Z,71.26
2023-05-22T05:10:06.305Z,71.06
2023-05-22T05:12:33.267Z,70.92
2023-05-22T05:14:59.805Z,70.89
2023-05-22T05:17:26.530Z,70.58
2023-05-22T05:19:53.448Z,70.58
2023-05-22T05:22:20.362Z,70.24
2023-05-22T05:24:47.311Z,70.22
2023-05-22T05:27:14.116Z,69.91
2023-05-22T05:29:41.318Z,69.69
2023-05-22T05:32:08.215Z,69.51
2023-05-22T05:34:35.218Z,69.18
2023-05-22T05:37:02.834Z,69.11
2023-05-22T05:39:29.936Z,68.78
2023-05-22T05:41:56.574Z,68.26
2023-05-22T05:44:23.662Z,68.15
2023-05-22T05:46:50.657Z,67.82
2023-05-22T05:49:19.229Z,67.77
2023-05-22T05:51:46.004Z,67.59
2023-05-22T05:54:12.720Z,67.01
2023-05-22T05:56:39.958Z,66.79
2023-05-22T05:59:06.715Z,66.61
2023-05-22T06:01:35.491Z,66.47
2023-05-22T06:04:03.407Z,66.13
2023-05-22T06:06:35.708Z,66.19
2023-05-22T06:09:06.597Z,65.96
2023-05-22T06:11:34.036Z,65.38
2023-05-22T06:14:07.017Z,65.07
2023-05-22T06:16:35.802Z,64.57
2023-05-22T06:19:04.757Z,64.72
2023-05-22T06:21:31.938Z,64.32
2023-05-22T06:23:58.995Z,63.83
2023-05-22T06:26:26.142Z,62.97
2023-05-22T06:28:54.065Z,63.04
2023-05-22T06:31:22.648Z,63.14
2023-05-22T06:33:49.837Z,63.17
2023-05-22T06:36:17.669Z,62.77
2023-05-22T06:38:46.016Z,62.54
2023-05-22T06:41:12.998Z,62.15
2023-05-22T06:43:39.970Z,61.63
2023-05-22T06:46:07.437Z,61.18
2023-05-22T06:48:35.811Z,61.01
2023-05-22T06:51:02.973Z,60.77
2023-05-22T06:53:30.295Z,60.89
2023-05-22T06:55:57.316Z,60.78
2023-05-22T06:58:24.044Z,60.52
2023-05-22T07:00:50.902Z,59.89
2023-05-22T07:03:17.819Z,59.66
2023-05-22T07:05:44.740Z,59.54
2023-05-22T07:08:11.601Z,59.20
2023-05-22T07:10:38.441Z,58.87
2023-05-22T07:13:05.608Z,59.04
2023-05-22T07:15:32.378Z,58.59
2023-05-22T07:17:59.136Z,58.85
2023-05-22T07:20:26.389Z,58.62
2023-05-22T07:22:53.177Z,59.02
2023-05-22T07:25:19.892Z,58.96
2023-05-22T07:27:46.669Z,58.89
2023-05-22T07:30:13.589Z,58.20
2023-05-22T07:32:40.443Z,58.16
2023-05-22T07:35:07.512Z,57.97
2023-05-22T07:37:35.986Z,57.53
2023-05-22T07:40:07.467Z,57.53
2023-05-22T07:42:34.511Z,57.71
2023-05-22T07:45:02.917Z,58.08
2023-05-22T07:47:29.865Z,57.01
2023-05-22T07:49:56.686Z,56.75
2023-05-22T07:52:23.970Z,56.84
2023-05-22T07:54:50.955Z,56.61
2023-05-22T07:57:17.693Z,56.73
2023-05-22T07:59:44.556Z,56.44
2023-05-22T08:02:11.357Z,55.93
2023-05-22T08:04:38.488Z,55.99
2023-05-22T08:07:05.974Z,55.08
2023-05-22T08:09:32.716Z,54.93
2023-05-22T08:11:59.467Z,55.09
2023-05-22T08:14:26.212Z,54.54
2023-05-22T08:16:53.374Z,54.00
2023-05-22T08:19:20.709Z,53.87
2023-05-22T08:21:47.343Z,54.37
2023-05-22T08:24:13.976Z,54.82
2023-05-22T08:26:41.294Z,54.16
2023-05-22T08:29:08.036Z,53.77
2023-05-22T08:31:35.808Z,53.48
2023-05-22T08:34:03.245Z,53.16
2023-05-22T08:36:34.002Z,52.88
2023-05-22T08:39:01.741Z,52.17
2023-05-22T08:41:29.785Z,52.37
2023-05-22T08:43:56.566Z,52.72
2023-05-22T08:46:26.477Z,52.39
2023-05-22T08:48:57.148Z,51.57
2023-05-22T08:51:33.046Z,51.48
2023-05-22T08:54:01.088Z,51.19
2023-05-22T08:56:29.673Z,51.12
2023-05-22T08:58:58.254Z,50.96
2023-05-22T09:01:25.636Z,50.10
2023-05-22T09:03:52.598Z,50.57
2023-05-22T09:06:19.732Z,50.14
2023-05-22T09:08:46.242Z,49.93
2023-05-22T09:11:13.259Z,49.98
2023-05-22T09:13:41.274Z,49.11
2023-05-22T09:16:12.846Z,48.08
2023-05-22T09:18:40.544Z,48.62
2023-05-22T09:21:21.449Z,48.33
2023-05-22T09:23:54.591Z,48.31
2023-05-22T09:26:21.541Z,48.14
2023-05-22T09:28:48.430Z,47.67
2023-05-22T09:31:15.117Z,47.26
2023-05-22T09:33:44.078Z,47.43
2023-05-22T09:36:11.923Z,47.91
2023-05-22T09:38:39.427Z,47.48
2023-05-22T09:41:06.950Z,47.56
2023-05-22T09:43:34.030Z,47.24
2023-05-22T09:46:02.044Z,46.52
2023-05-22T09:48:28.984Z,46.92
2023-05-22T09:50:59.835Z,46.44
2023-05-22T09:53:31.219Z,46.17
2023-05-22T09:56:00.435Z,45.61
2023-05-22T09:58:31.104Z,45.17
2023-05-22T10:00:59.337Z,45.33
2023-05-22T10:03:27.313Z,45.36
2023-05-22T10:05:58.942Z,45.06
2023-05-22T10:08:28.564Z,45.45
2023-05-22T10:10:55.656Z,45.08
2023-05-22T10:13:24.061Z,45.01
2023-05-22T10:15:51.480Z,45.28
2023-05-22T10:18:18.624Z,45.03
2023-05-22T10:20:48.368Z,44.43
2023-05-22T10:23:18.348Z,44.22
2023-05-22T10:25:46.124Z,44.75
2023-05-22T10:28:20.355Z,44.59
2023-05-22T10:30:55.644Z,43.34
2023-05-22T10:33:31.168Z,43.89
2023-05-22T10:36:13.440Z,43.66
2023-05-22T10:38:58.317Z,43.03
2023-05-22T10:41:26.506Z,41.82
2023-05-22T10:43:56.654Z,41.59
2023-05-22T10:46:23.951Z,41.63
2023-05-22T10:48:53.082Z,41.98
2023-05-22T10:51:21.649Z,41.04
2023-05-22T10:54:05.923Z,41.08
2023-05-22T10:56:38.306Z,41.85
2023-05-22T10:59:07.595Z,42.09
2023-05-22T11:01:36.446Z,41.64
2023-05-22T11:04:08.988Z,41.52
2023-05-22T11:06:48.889Z,41.59
2023-05-22T11:09:32.797Z,41.17
2023-05-22T11:12:13.601Z,40.30
2023-05-22T11:14:40.260Z,40.02
2023-05-22T11:17:07.355Z,40.26
2023-05-22T11:19:34.315Z,40.56
2023-05-22T11:22:02.972Z,40.87
2023-05-22T11:24:34.224Z,40.54
2023-05-22T11:27:03.405Z,40.53
2023-05-22T11:29:31.136Z,40.17
2023-05-22T11:32:00.925Z,39.90
2023-05-22T11:34:27.996Z,40.72
2023-05-22T11:36:59.804Z,40.58
2023-05-22T11:39:27.303Z,39.94
2023-05-22T11:41:54.046Z,40.53
2023-05-22T11:44:20.876Z,40.78
2023-05-22T11:46:47.979Z,40.31
2023-05-22T11:49:15.242Z,40.08
2023-05-22T11:51:42.008Z,39.96
2023-05-22T11:54:08.790Z,40.08
2023-05-22T11:56:35.648Z,39.77
2023-05-22T11:59:03.183Z,39.45
2023-05-22T12:01:29.749Z,39.35
2023-05-22T12:03:57.054Z,38.58
2023-05-22T12:06:24.049Z,38.08
2023-05-22T12:08:51.385Z,37.56
2023-05-22T12:11:18.252Z,37.32
2023-05-22T12:13:45.837Z,35.93
2023-05-22T12:16:22.124Z,35.59
2023-05-22T12:18:53.001Z,35.12
2023-05-22T12:21:20.763Z,34.36
2023-05-22T12:23:51.498Z,33.95
2023-05-22T12:26:18.313Z,33.60
2023-05-22T12:28:45.178Z,33.56
2023-05-22T12:31:20.158Z,32.75
2023-05-22T12:33:47.480Z,32.41
2023-05-22T12:36:14.232Z,32.34
2023-05-22T12:38:41.403Z,31.45
2023-05-22T12:41:08.955Z,31.25
2023-05-22T12:43:35.908Z,31.03
2023-05-22T12:46:02.866Z,30.78
2023-05-22T12:48:29.680Z,29.88
2023-05-22T12:50:56.676Z,29.51
2023-05-22T12:53:23.257Z,28.39
2023-05-22T12:55:50.491Z,27.30
2023-05-22T12:58:17.190Z,27.16
2023-05-22T13:00:43.992Z,26.85
2023-05-22T13:03:12.385Z,26.00
2023-05-22T13:05:39.468Z,25.38
2023-05-22T13:08:06.410Z,25.28
2023-05-22T13:10:33.366Z,25.69
2023-05-22T13:13:00.435Z,25.50
2023-05-22T13:15:29.948Z,25.31
2023-05-22T13:17:57.126Z,25.43
2023-05-22T13:20:23.949Z,25.15
2023-05-22T13:22:51.125Z,24.72
2023-05-22T13:25:19.213Z,24.17
2023-05-22T13:27:46.662Z,23.26
2023-05-22T13:30:13.472Z,23.07
2023-05-22T13:32:40.089Z,22.74
2023-05-22T13:35:07.769Z,22.71
2023-05-22T13:37:34.342Z,22.83
2023-05-22T13:40:01.316Z,24.61
2023-05-22T13:42:28.069Z,25.81
2023-05-22T13:44:54.958Z,27.15
2023-05-22T13:47:23.029Z,28.30
2023-05-22T13:49:50.103Z,29.16
2023-05-22T13:52:18.021Z,30.37
2023-05-22T13:54:47.851Z,31.73
2023-05-22T13:57:15.011Z,32.46
2023-05-22T13:59:42.171Z,33.84
2023-05-22T14:02:09.085Z,34.46
2023-05-22T14:04:35.992Z,35.02
2023-05-22T14:07:02.717Z,35.87
2023-05-22T14:09:30.801Z,36.75
2023-05-22T14:12:01.130Z,36.73
2023-05-22T14:14:27.974Z,36.96
2023-05-22T14:16:54.837Z,37.05
2023-05-22T14:19:21.693Z,36.86
2023-05-22T14:21:50.788Z,36.88
2023-05-22T14:24:18.046Z,37.03
2023-05-22T14:26:45.510Z,36.96
2023-05-22T14:29:12.789Z,37.60
2023-05-22T14:31:51.957Z,38.06
2023-05-22T14:34:18.851Z,37.82
2023-05-22T14:36:46.083Z,38.43
2023-05-22T14:39:13.992Z,39.09
2023-05-22T14:41:41.052Z,39.43
2023-05-22T14:44:07.820Z,40.06
2023-05-22T14:46:34.814Z,40.64
2023-05-22T14:49:01.824Z,41.28
2023-05-22T14:51:28.665Z,41.81
2023-05-22T14:53:55.691Z,42.78
2023-05-22T14:56:23.053Z,43.52
2023-05-22T14:58:50.316Z,43.92
2023-05-22T15:01:17.242Z,44.45
2023-05-22T15:03:44.071Z,44.81
2023-05-22T15:06:11.106Z,45.56
2023-05-22T15:08:37.921Z,45.89
2023-05-22T15:11:07.638Z,46.15
2023-05-22T15:13:34.531Z,46.40
2023-05-22T15:16:02.322Z,46.59
2023-05-22T15:18:29.321Z,46.71
2023-05-22T15:20:56.773Z,46.84
2023-05-22T15:23:25.378Z,47.24
2023-05-22T15:25:53.347Z,47.63
2023-05-22T15:28:22.190Z,47.99
2023-05-22T15:30:49.406Z,48.34
2023-05-22T15:33:16.678Z,48.64
2023-05-22T15:35:46.675Z,48.76
2023-05-22T15:38:15.699Z,48.70
2023-05-22T15:40:44.370Z,48.97
2023-05-22T15:43:11.317Z,49.01
2023-05-22T15:45:38.622Z,49.22
2023-05-22T15:48:06.847Z,49.25
2023-05-22T15:50:34.602Z,49.12
2023-05-22T15:53:01.555Z,49.08
2023-05-22T15:55:29.125Z,48.95
2023-05-22T15:57:56.133Z,48.92
2023-05-22T16:00:22.961Z,49.37
2023-05-22T16:02:49.792Z,49.66
2023-05-22T16:05:16.685Z,50.21
2023-05-22T16:07:43.890Z,50.75
2023-05-22T16:10:11.136Z,51.82
2023-05-22T16:12:39.748Z,52.78
2023-05-22T16:15:07.616Z,53.03
2023-05-22T16:17:34.263Z,53.10
2023-05-22T16:20:01.713Z,54.09
2023-05-22T16:22:36.634Z,54.78
2023-05-22T16:25:17.532Z,55.76
2023-05-22T16:27:44.420Z,56.85
2023-05-22T16:30:12.237Z,57.74
2023-05-22T16:32:40.182Z,58.39
2023-05-22T16:35:07.740Z,59.48
2023-05-22T16:37:34.409Z,60.79
2023-05-22T16:40:02.275Z,62.18
2023-05-22T16:42:28.927Z,63.16
2023-05-22T16:44:55.779Z,63.78
2023-05-22T16:47:22.695Z,64.19
2023-05-22T16:49:49.986Z,65.04
2023-05-22T16:52:18.103Z,65.91
2023-05-22T16:54:45.408Z,67.16
2023-05-22T16:57:12.360Z,68.70
2023-05-22T16:59:39.481Z,69.92
2023-05-22T17:02:07.418Z,71.25
2023-05-22T17:04:34.256Z,72.35
2023-05-22T17:07:01.445Z,73.86
2023-05-22T17:09:28.121Z,75.96
2023-05-22T17:11:55.011Z,78.29
2023-05-22T17:14:22.953Z,80.62
2023-05-22T17:16:49.869Z,82.56
2023-05-22T17:19:17.554Z,83.81
2023-05-22T17:21:44.726Z,85.81
2023-05-22T17:24:14.711Z,86.94
2023-05-22T17:26:42.011Z,87.86
2023-05-22T17:29:09.507Z,88.60
2023-05-22T17:31:39.049Z,88.69
2023-05-22T17:34:06.250Z,89.10
2023-05-22T17:36:33.214Z,89.42
2023-05-22T17:39:00.193Z,88.88
2023-05-22T17:41:27.084Z,88.23
2023-05-22T17:43:55.883Z,87.61
2023-05-22T17:46:23.350Z,87.53
2023-05-22T17:48:50.553Z,87.12
2023-05-22T17:51:17.145Z,87.13
2023-05-22T17:53:43.701Z,86.79
2023-05-22T17:56:10.312Z,85.88
2023-05-22T17:58:37.095Z,85.09
2023-05-22T18:01:03.835Z,83.97
2023-05-22T18:03:31.025Z,82.88
2023-05-22T18:05:57.713Z,82.59
2023-05-22T18:08:24.552Z,82.37
2023-05-22T18:10:51.411Z,82.92
2023-05-22T18:13:19.657Z,83.25
2023-05-22T18:15:46.511Z,81.94
2023-05-22T18:18:15.022Z,81.91
2023-05-22T18:20:41.930Z,82.23
2023-05-22T18:23:10.135Z,82.75
2023-05-22T18:25:40.363Z,83.05
2023-05-22T18:28:09.723Z,83.22
2023-05-22T18:30:42.568Z,83.98
2023-05-22T18:33:09.610Z,84.16
2023-05-22T18:35:37.593Z,84.46
2023-05-22T18:38:04.124Z,84.72
2023-05-22T18:40:32.164Z,85.22
2023-05-22T18:42:58.910Z,85.68
2023-05-22T18:45:25.446Z,85.93
2023-05-22T18:47:55.376Z,85.86
2023-05-22T18:50:23.692Z,85.90
2023-05-22T18:52:50.393Z,85.91
2023-05-22T18:55:16.886Z,85.92
2023-05-22T18:57:46.430Z,86.65
2023-05-22T19:00:15.465Z,86.87
2023-05-22T19:02:42.349Z,87.01
2023-05-22T19:05:09.995Z,86.61
2023-05-22T19:07:36.501Z,86.61
2023-05-22T19:10:04.866Z,86.24
2023-05-22T19:12:35.459Z,85.85
2023-05-22T19:15:02.304Z,85.41
2023-05-22T19:17:28.855Z,85.39
2023-05-22T19:20:18.727Z,85.08
2023-05-22T19:22:45.440Z,84.80
2023-05-22T19:25:11.958Z,84.78
2023-05-22T19:27:39.295Z,84.52
2023-05-22T19:30:07.588Z,84.25
2023-05-22T19:32:34.207Z,84.12
2023-05-22T19:35:05.074Z,84.41
2023-05-22T19:37:32.072Z,84.73
2023-05-22T19:42:41.677Z,85.55
2023-05-22T19:45:08.686Z,86.08
2023-05-22T19:48:04.733Z,86.61
2023-05-22T19:50:32.303Z,86.87
2023-05-22T19:52:58.821Z,86.83
2023-05-22T19:55:25.766Z,87.30
2023-05-22T19:57:52.203Z,87.06
2023-05-22T20:00:19.366Z,87.09
2023-05-22T20:02:46.004Z,87.15
2023-05-22T20:05:13.513Z,87.34
2023-05-22T20:07:41.145Z,87.57
2023-05-22T20:10:10.030Z,87.32
2023-05-22T20:15:30.579Z,87.46
2023-05-22T20:17:57.966Z,87.92
2023-05-22T20:20:24.906Z,88.13
2023-05-22T20:22:52.712Z,88.39
2023-05-22T20:25:22.960Z,88.73
2023-05-22T20:27:49.510Z,89.32
2023-05-22T20:30:16.066Z,89.78
2023-05-22T20:32:43.303Z,89.97
2023-05-22T20:35:10.940Z,90.33
2023-05-22T20:37:38.334Z,90.62
2023-05-22T20:40:05.638Z,91.22
2023-05-22T20:42:32.084Z,91.48
2023-05-22T20:44:58.641Z,92.31
2023-05-22T20:47:25.155Z,92.97
2023-05-22T20:49:51.618Z,93.07
2023-05-22T20:52:18.016Z,93.26
2023-05-22T20:54:44.490Z,93.59
2023-05-22T20:57:11.065Z,94.44
2023-05-22T20:59:37.693Z,94.77
2023-05-22T21:02:04.627Z,94.90
2023-05-22T21:04:31.216Z,95.14
2023-05-22T21:06:57.716Z,95.29
2023-05-22T21:09:24.321Z,95.52
2023-05-22T21:11:50.849Z,95.94
2023-05-22T21:14:17.406Z,96.20
2023-05-22T21:16:43.992Z,96.33
2023-05-22T21:19:10.488Z,96.63
2023-05-22T21:21:41.500Z,96.92
2023-05-22T21:24:09.686Z,97.01
2023-05-22T21:26:36.281Z,97.10
2023-05-22T21:29:03.677Z,97.19
2023-05-22T21:31:30.453Z,97.43
2023-05-22T21:33:57.070Z,97.43
2023-05-22T21:36:23.603Z,97.66
2023-05-22T21:38:50.153Z,97.84
2023-05-22T21:41:16.702Z,97.88
2023-05-22T21:43:43.161Z,98.09
2023-05-22T21:46:10.262Z,98.14
2023-05-22T21:48:36.765Z,98.32
2023-05-22T21:51:03.301Z,98.71
2023-05-22T21:53:29.714Z,98.92
2023-05-22T21:55:56.286Z,99.09
2023-05-22T21:58:22.697Z,99.23
2023-05-22T22:00:49.297Z,99.33
2023-05-22T22:03:15.865Z,99.49
2023-05-22T22:05:42.368Z,99.45
2023-05-22T22:08:08.929Z,99.80
2023-05-22T22:10:35.681Z,100.00
2023-05-22T22:13:02.545Z,100.00
2023-05-22T22:15:29.114Z,100.00
2023-05-22T22:18:02.185Z,100.00
2023-05-22T22:20:43.651Z,100.00
2023-05-22T22:23:11.333Z,100.00
2023-05-22T22:25:38.954Z,100.00
2023-05-22T22:28:05.946Z,100.00
2023-05-22T22:30:32.513Z,100.00
2023-05-22T22:32:59.113Z,100.00
2023-05-22T22:35:25.666Z,100.00
2023-05-22T22:37:52.189Z,100.00
2023-05-22T22:40:18.764Z,100.00
2023-05-22T22:42:45.290Z,100.00
2023-05-22T22:45:11.740Z,100.00
2023-05-22T22:47:38.261Z,100.00
2023-05-22T22:50:05.153Z,100.00
2023-05-22T22:52:31.571Z,100.00
2023-05-22T22:54:58.101Z,100.00
2023-05-22T22:57:24.752Z,100.00
2023-05-22T22:59:51.434Z,100.00
2023-05-22T23:02:17.922Z,100.00
2023-05-22T23:04:44.396Z,100.00
2023-05-22T23:07:11.069Z,100.00
2023-05-22T23:09:39.926Z,100.00
2023-05-22T23:12:06.714Z,100.00
2023-05-22T23:14:33.216Z,100.00
2023-05-22T23:16:59.670Z,100.00
2023-05-22T23:19:26.323Z,100.00
2023-05-22T23:21:53.541Z,100.00
2023-05-22T23:24:20.025Z,100.00
2023-05-22T23:26:46.671Z,100.00
2023-05-22T23:29:13.220Z,100.00
2023-05-22T23:31:40.308Z,100.00
2023-05-22T23:34:06.891Z,100.00
2023-05-22T23:36:33.609Z,100.00
2023-05-22T23:39:00.455Z,100.00
2023-05-22T23:41:27.506Z,100.00
2023-05-22T23:43:54.046Z,100.00
2023-05-22T23:46:21.256Z,100.00
2023-05-22T23:48:47.949Z,100.00
2023-05-22T23:51:14.729Z,100.00
2023-05-22T23:53:42.030Z,100.00
2023-05-22T23:56:09.283Z,100.00
2023-05-22T23:58:37.705Z,100.00
